Time;durP1;ratioP1;P1;durP2;ratioP2;P2;SDS_P1;SDS_P2;PMS_P1;PMS_P2;Temp;Humidity;BMP_temperature;BMP_pressure;BME280_temperature;BME280_humidity;BME280_pressure;Samples;Min_cycle;Max_cycle;Signal;HPM_P1;HPM_P2
2021/12/16 05:03:39;;;;;;;94.90;49.88;;;;;;;0.15;100.00;101768.47;5932298;27;20121;-87
2021/12/16 05:06:42;;;;;;;86.15;48.80;;;;;;;0.17;100.00;101769.22;5415567;32;33819;-83
2021/12/16 05:10:10;;;;;;;87.15;48.50;;;;;;;0.21;100.00;101773.47;5415799;32;34276;-83
2021/12/16 05:13:16;;;;;;;93.68;50.47;;;;;;;0.30;100.00;101766.84;5415301;32;34033;-83
2021/12/16 05:16:19;;;;;;;85.47;47.22;;;;;;;0.35;100.00;101779.84;5400630;32;33794;-83
2021/12/16 05:19:23;;;;;;;84.55;47.15;;;;;;;0.40;100.00;101770.72;5397241;33;33449;-83
2021/12/16 05:29:03;;;;;;;80.93;45.97;;;;;;;0.57;100.00;101787.56;5412705;32;34762;-83
2021/12/16 05:32:07;;;;;;;77.32;44.20;;;;;;;0.66;100.00;101787.09;5428769;32;35148;-83
2021/12/16 05:35:10;;;;;;;73.53;43.58;;;;;;;0.76;100.00;101780.38;5415851;32;34924;-82
2021/12/16 05:38:14;;;;;;;74.57;43.17;;;;;;;0.97;100.00;101791.66;5417484;32;34269;-82
2021/12/16 05:41:20;;;;;;;75.47;43.38;;;;;;;1.07;100.00;101799.97;5415318;32;34015;-83
2021/12/16 05:44:23;;;;;;;74.65;42.78;;;;;;;1.15;100.00;101796.91;5414691;32;34762;-83
2021/12/16 05:47:26;;;;;;;78.25;43.47;;;;;;;1.14;100.00;101804.00;5415542;32;34047;-83
2021/12/16 05:50:31;;;;;;;70.68;43.08;;;;;;;1.06;100.00;101808.88;5419663;32;33826;-83
2021/12/16 05:53:34;;;;;;;73.82;42.55;;;;;;;0.95;100.00;101797.97;5422513;32;33931;-83
2021/12/16 05:56:40;;;;;;;67.78;40.85;;;;;;;0.93;100.00;101802.47;5415058;32;33974;-83
2021/12/16 05:59:42;;;;;;;72.85;40.20;;;;;;;0.97;100.00;101804.06;5414895;32;34479;-83
2021/12/16 06:02:46;;;;;;;69.70;41.13;;;;;;;0.93;100.00;101803.34;5424704;32;33673;-83
2021/12/16 06:05:51;;;;;;;68.65;38.95;;;;;;;0.87;100.00;101803.66;5427833;32;36671;-83
2021/12/16 06:08:55;;;;;;;66.40;38.65;;;;;;;0.79;100.00;101800.53;5428047;32;33775;-83
2021/12/16 06:11:58;;;;;;;65.00;35.63;;;;;;;0.89;100.00;101796.50;5423509;32;35335;-82
2021/12/16 06:28:11;;;;;;;64.12;32.83;;;;;;;0.74;100.00;101797.31;5387389;33;33521;-83
2021/12/16 06:31:15;;;;;;;63.13;34.92;;;;;;;0.63;100.00;101805.78;5389222;33;34583;-83
2021/12/16 06:34:18;;;;;;;58.90;31.52;;;;;;;0.66;100.00;101805.63;5386727;32;34202;-82
2021/12/16 06:37:24;;;;;;;60.00;33.60;;;;;;;0.63;100.00;101805.78;5391677;32;33974;-83
2021/12/16 06:40:27;;;;;;;67.15;35.22;;;;;;;0.64;100.00;101811.03;5390016;33;33937;-83
2021/12/16 06:43:32;;;;;;;61.10;32.42;;;;;;;0.64;100.00;101813.69;5380596;33;34622;-83
2021/12/16 06:46:38;;;;;;;59.47;32.50;;;;;;;0.64;100.00;101812.81;5382911;33;34704;-83
2021/12/16 06:49:44;;;;;;;64.12;34.25;;;;;;;0.75;100.00;101822.84;5388447;33;34471;-83
2021/12/16 06:52:48;;;;;;;63.13;35.67;;;;;;;0.88;100.00;101821.31;5390972;33;33481;-83
2021/12/16 07:02:13;;;;;;;63.60;34.72;;;;;;;0.84;100.00;101819.72;5391984;33;34075;-82
2021/12/16 07:05:18;;;;;;;64.82;37.28;;;;;;;0.80;100.00;101823.50;5414991;33;34249;-83
2021/12/16 07:08:23;;;;;;;70.18;36.50;;;;;;;0.77;100.00;101827.16;5391545;33;35415;-83
2021/12/16 07:11:26;;;;;;;74.32;38.25;;;;;;;0.86;100.00;101831.97;5392035;33;34447;-82
2021/12/16 07:14:38;;;;;;;71.85;36.83;;;;;;;0.98;100.00;101833.13;5394873;33;34617;-82
2021/12/16 07:17:41;;;;;;;79.72;43.03;;;;;;;1.04;100.00;101824.84;5389622;33;35437;-82
2021/12/16 07:20:44;;;;;;;102.78;48.60;;;;;;;1.12;100.00;101820.00;5388857;33;34426;-82
2021/12/16 07:23:47;;;;;;;100.32;48.75;;;;;;;1.16;100.00;101825.16;5417175;27;34459;-82
2021/12/16 07:26:50;;;;;;;97.93;47.08;;;;;;;1.13;100.00;101823.50;5398836;32;34101;-82
2021/12/16 07:29:52;;;;;;;91.45;45.28;;;;;;;1.18;100.00;101825.94;5408100;32;35117;-82
2021/12/16 07:32:55;;;;;;;90.28;44.00;;;;;;;1.17;100.00;101825.06;5399213;32;33768;-82
2021/12/16 07:36:00;;;;;;;88.03;44.22;;;;;;;1.09;100.00;101824.62;5410542;32;34018;-82
2021/12/16 07:39:06;;;;;;;77.03;40.78;;;;;;;1.16;100.00;101826.00;5406495;33;33639;-82
2021/12/16 07:42:14;;;;;;;71.28;38.47;;;;;;;1.08;100.00;101821.13;5408696;32;34051;-82
2021/12/16 07:45:18;;;;;;;77.25;40.35;;;;;;;1.21;100.00;101825.75;5410716;32;33479;-82
2021/12/16 07:48:25;;;;;;;85.30;40.28;;;;;;;1.27;100.00;101820.97;5404049;32;33415;-82
2021/12/16 07:51:29;;;;;;;76.22;39.95;;;;;;;1.28;100.00;101812.06;5411258;32;33594;-82
2021/12/16 07:54:31;;;;;;;81.70;42.95;;;;;;;1.22;100.00;101815.06;5411991;32;33968;-83
2021/12/16 07:57:35;;;;;;;82.45;43.28;;;;;;;1.16;100.00;101812.72;5413258;32;33835;-81
2021/12/16 08:00:38;;;;;;;86.05;41.92;;;;;;;1.14;100.00;101811.94;5405574;32;33577;-81
2021/12/16 08:03:42;;;;;;;84.37;42.30;;;;;;;1.15;100.00;101813.69;5408394;32;33842;-82
2021/12/16 08:06:50;;;;;;;82.45;42.50;;;;;;;1.13;100.00;101819.06;5416894;32;33965;-83
2021/12/16 08:09:54;;;;;;;104.60;50.85;;;;;;;1.13;100.00;101816.41;5413034;32;34682;-83
2021/12/16 08:12:57;;;;;;;99.65;51.05;;;;;;;1.19;100.00;101830.28;5407031;32;34125;-81
2021/12/16 08:16:01;;;;;;;104.78;51.10;;;;;;;1.25;100.00;101819.34;5409648;32;34129;-85
2021/12/16 08:19:06;;;;;;;92.72;47.78;;;;;;;1.19;100.00;101820.53;5410720;32;33844;-87
2021/12/16 08:22:08;;;;;;;101.57;50.28;;;;;;;1.20;100.00;101819.59;5418404;32;34038;-86
2021/12/16 08:25:12;;;;;;;96.70;48.75;;;;;;;1.22;100.00;101824.81;5425161;32;34447;-82
2021/12/16 08:28:15;;;;;;;73.75;38.58;;;;;;;1.21;100.00;101818.66;5390292;33;34882;-81
2021/12/16 08:31:18;;;;;;;74.15;36.83;;;;;;;1.35;100.00;101824.09;5405628;27;33724;-84
2021/12/16 08:34:20;;;;;;;67.18;34.33;;;;;;;1.44;100.00;101820.06;5410772;32;32579;-82
2021/12/16 08:37:24;;;;;;;64.95;30.77;;;;;;;1.53;100.00;101824.03;5414935;32;34327;-83
2021/12/16 08:40:27;;;;;;;61.97;31.85;;;;;;;1.81;100.00;101821.56;5412970;32;34040;-83
2021/12/16 08:43:30;;;;;;;61.33;30.25;;;;;;;1.91;100.00;101829.84;5408549;32;34610;-83
2021/12/16 08:46:36;;;;;;;61.55;31.35;;;;;;;1.99;100.00;101827.63;5409743;32;33948;-85
2021/12/16 08:49:40;;;;;;;59.50;29.65;;;;;;;2.10;100.00;101818.19;5409835;32;32490;-83
2021/12/16 08:52:43;;;;;;;57.38;29.92;;;;;;;2.16;100.00;101812.50;5410144;32;34307;-82
2021/12/16 08:55:46;;;;;;;53.87;25.88;;;;;;;2.26;100.00;101816.37;5410991;32;33647;-83
2021/12/16 08:58:49;;;;;;;59.63;27.90;;;;;;;2.47;100.00;101809.78;5416533;32;33641;-84
2021/12/16 09:01:55;;;;;;;55.08;28.65;;;;;;;2.72;100.00;101808.31;5415299;32;33672;-87
2021/12/16 09:04:58;;;;;;;54.92;28.15;;;;;;;3.07;100.00;101802.66;5414562;32;34284;-86
2021/12/16 09:08:02;;;;;;;51.25;25.92;;;;;;;3.29;100.00;101807.53;5413482;32;34642;-87
2021/12/16 09:11:08;;;;;;;49.15;26.35;;;;;;;3.53;100.00;101802.47;5409639;32;34585;-86
2021/12/16 09:14:11;;;;;;;66.07;33.15;;;;;;;3.62;100.00;101799.22;5415245;32;33955;-83
2021/12/16 09:17:16;;;;;;;65.85;36.38;;;;;;;3.67;100.00;101798.94;5407862;32;34070;-83
2021/12/16 09:20:19;;;;;;;71.43;37.47;;;;;;;3.87;100.00;101794.03;5410937;32;34325;-84
2021/12/16 09:23:22;;;;;;;72.35;38.97;;;;;;;3.91;100.00;101797.34;5408651;32;33978;-84
2021/12/16 09:26:28;;;;;;;70.30;38.13;;;;;;;4.03;100.00;101798.34;5407174;32;33791;-83
2021/12/16 09:29:37;;;;;;;64.03;36.10;;;;;;;4.29;100.00;101799.28;5394128;32;34236;-84
2021/12/16 09:32:40;;;;;;;64.43;36.50;;;;;;;4.40;100.00;101803.91;5401638;32;34087;-84
2021/12/16 09:35:47;;;;;;;67.22;37.67;;;;;;;4.36;98.69;101797.06;5398307;32;33532;-84
2021/12/16 09:38:50;;;;;;;63.83;35.20;;;;;;;4.27;99.17;101809.19;5398712;33;33600;-83
2021/12/16 09:41:56;;;;;;;71.90;38.22;;;;;;;4.36;98.48;101797.94;5405376;32;33964;-84
2021/12/16 09:44:58;;;;;;;67.12;39.33;;;;;;;4.43;96.34;101798.38;5393784;32;34738;-83
2021/12/16 09:48:02;;;;;;;71.40;37.92;;;;;;;4.26;96.53;101791.50;5412848;32;34914;-82
2021/12/16 09:51:08;;;;;;;79.75;40.08;;;;;;;4.34;96.11;101791.00;5402890;33;35377;-83
2021/12/16 09:54:21;;;;;;;76.55;40.47;;;;;;;4.25;96.01;101790.66;5394804;33;251129;-83
2021/12/16 09:57:24;;;;;;;73.93;39.85;;;;;;;4.45;95.42;101789.31;5398994;32;33555;-83
2021/12/16 10:00:29;;;;;;;70.50;38.28;;;;;;;4.65;94.60;101792.44;5396065;32;34524;-84
2021/12/16 10:03:32;;;;;;;68.55;36.65;;;;;;;4.89;93.19;101787.25;5392921;33;35105;-83
2021/12/16 10:06:39;;;;;;;64.85;35.50;;;;;;;5.14;91.84;101789.87;5394849;32;34386;-86
2021/12/16 10:09:45;;;;;;;68.95;38.05;;;;;;;5.32;91.09;101781.53;5395432;33;35927;-87
2021/12/16 10:12:50;;;;;;;65.45;36.58;;;;;;;5.60;90.95;101783.09;5398798;33;33910;-84
2021/12/16 10:19:12;;;;;;;62.22;32.83;;;;;;;5.96;87.29;101776.91;5394763;33;34291;-83
2021/12/16 10:22:26;;;;;;;59.38;30.92;;;;;;;5.91;87.04;101774.56;5397050;33;33776;-84
2021/12/16 10:25:46;;;;;;;54.80;30.05;;;;;;;5.91;86.68;101773.69;5407113;33;34316;-83
2021/12/16 10:28:53;;;;;;;58.92;31.12;;;;;;;5.52;88.28;101767.62;5413479;33;34782;-84
2021/12/16 10:31:56;;;;;;;56.97;32.15;;;;;;;5.26;89.52;101760.62;5405525;32;34119;-83
2021/12/16 10:35:02;;;;;;;61.25;31.30;;;;;;;5.54;89.12;101755.00;5396783;33;33627;-83
2021/12/16 10:38:07;;;;;;;52.85;31.02;;;;;;;5.84;88.12;101759.91;5389502;32;33618;-83
2021/12/16 10:41:16;;;;;;;52.28;31.12;;;;;;;6.09;87.61;101759.00;5388174;33;34063;-83
2021/12/16 10:44:21;;;;;;;54.67;30.48;;;;;;;6.21;87.12;101757.22;5393740;32;34190;-84
2021/12/16 10:47:24;;;;;;;49.55;27.85;;;;;;;6.55;86.92;101751.97;5398416;33;34017;-84
2021/12/16 10:50:27;;;;;;;50.53;29.27;;;;;;;6.63;85.76;101740.69;5399723;33;33739;-84
2021/12/16 10:54:03;;;;;;;45.15;27.42;;;;;;;6.52;86.86;101736.16;5392550;33;35175;-84
2021/12/16 10:57:13;;;;;;;44.28;25.70;;;;;;;6.38;86.64;101745.25;5388789;32;34584;-84
2021/12/16 11:00:16;;;;;;;;;;;;;;;6.16;87.83;101747.84;5401049;32;34598;-84
2021/12/16 11:03:51;;;;;;;42.03;25.37;;;;;;;6.11;88.84;101753.50;5391611;33;34815;-84
2021/12/16 11:06:55;;;;;;;44.60;25.55;;;;;;;6.06;89.17;101748.53;5369283;32;34039;-85
2021/12/16 11:10:13;;;;;;;44.75;25.05;;;;;;;6.07;90.03;101749.38;5403617;33;33775;-85
2021/12/16 11:13:19;;;;;;;46.63;25.35;;;;;;;5.98;90.25;101742.91;5412090;33;34166;-84
2021/12/16 11:16:39;;;;;;;40.33;22.80;;;;;;;6.02;90.58;101739.00;5405339;33;36622;-83
2021/12/16 11:20:18;;;;;;;42.40;23.60;;;;;;;6.25;90.07;101741.78;5400500;33;33834;-83
2021/12/16 11:23:42;;;;;;;41.58;21.90;;;;;;;6.16;90.48;101745.16;5400762;33;34431;-83
2021/12/16 11:26:46;;;;;;;40.88;22.98;;;;;;;5.99;91.15;101738.41;5400872;33;34665;-83
2021/12/16 11:29:49;;;;;;;43.80;23.30;;;;;;;5.90;92.30;101734.56;5401278;33;33828;-83
2021/12/16 11:32:55;;;;;;;39.97;22.33;;;;;;;5.85;92.41;101726.03;5400731;33;33994;-83
2021/12/16 11:36:07;;;;;;;42.65;23.80;;;;;;;5.97;92.40;101730.50;5401245;33;34593;-83
2021/12/16 11:39:17;;;;;;;42.03;22.87;;;;;;;6.01;92.47;101721.28;5407746;32;33257;-83
2021/12/16 11:42:27;;;;;;;43.55;22.73;;;;;;;6.41;90.65;101723.62;5401123;33;34077;-83
2021/12/16 11:45:36;;;;;;;38.95;22.05;;;;;;;6.45;89.92;101718.88;5389083;33;33625;-84
2021/12/16 11:48:40;;;;;;;40.70;23.08;;;;;;;6.45;90.24;101705.50;5389046;33;33517;-84
2021/12/16 11:51:58;;;;;;;42.00;21.77;;;;;;;6.48;90.02;101706.09;5389245;33;34126;-84
2021/12/16 11:55:04;;;;;;;42.50;23.20;;;;;;;6.42;90.02;101703.91;5387087;33;33933;-87
2021/12/16 11:58:08;;;;;;;40.67;24.40;;;;;;;6.43;90.30;101696.72;5389035;33;32749;-84
2021/12/16 12:01:23;;;;;;;41.05;22.15;;;;;;;6.42;90.49;101703.91;5395255;32;33757;-84
2021/12/16 12:04:34;;;;;;;40.12;21.37;;;;;;;6.50;90.37;101690.78;5392796;33;35183;-83
2021/12/16 12:07:41;;;;;;;42.28;22.05;;;;;;;6.45;90.40;101695.66;5391675;32;34640;-84
2021/12/16 12:11:00;;;;;;;41.78;21.52;;;;;;;6.50;90.46;101698.81;5387994;33;33654;-83
2021/12/16 12:14:10;;;;;;;36.72;21.05;;;;;;;6.46;90.19;101697.34;5389365;32;34627;-83
2021/12/16 12:17:19;;;;;;;37.80;21.27;;;;;;;6.64;89.98;101707.59;5385597;33;33909;-83
2021/12/16 12:20:28;;;;;;;36.88;21.50;;;;;;;6.78;88.84;101699.34;5397067;33;34055;-83
2021/12/16 12:23:31;;;;;;;35.63;21.87;;;;;;;6.87;88.33;101705.78;5391295;33;34395;-83
2021/12/16 12:26:37;;;;;;;37.50;21.85;;;;;;;7.17;87.25;101691.81;5391745;33;33509;-83
2021/12/16 12:29:46;;;;;;;38.88;21.55;;;;;;;7.10;86.63;101690.56;5392177;33;33961;-83
2021/12/16 12:32:51;;;;;;;38.78;22.98;;;;;;;6.78;88.08;101692.16;5387185;33;34309;-83
2021/12/16 12:35:56;;;;;;;40.17;21.12;;;;;;;6.76;88.45;101693.28;5389968;33;33945;-83
2021/12/16 12:39:03;;;;;;;35.58;20.77;;;;;;;6.65;89.18;101690.56;5378258;32;34641;-83
2021/12/16 12:42:11;;;;;;;40.42;22.40;;;;;;;6.70;88.87;101693.72;5373199;33;35182;-83
2021/12/16 12:45:16;;;;;;;37.67;21.92;;;;;;;6.73;88.77;101690.84;5375815;33;33972;-83
2021/12/16 12:48:20;;;;;;;35.83;21.10;;;;;;;6.63;89.19;101690.69;5375683;33;33879;-83
2021/12/16 12:51:36;;;;;;;37.47;21.85;;;;;;;6.79;88.21;101690.34;5374002;33;33850;-83
2021/12/16 12:54:59;;;;;;;33.55;19.17;;;;;;;6.80;88.24;101692.03;5381556;33;34387;-85
2021/12/16 12:58:14;;;;;;;36.10;20.65;;;;;;;6.96;87.64;101683.63;5398259;33;35339;-85
2021/12/16 13:01:17;;;;;;;34.22;20.92;;;;;;;6.78;88.21;101689.47;5381244;33;35167;-84
2021/12/16 13:04:28;;;;;;;35.03;21.17;;;;;;;6.62;89.23;101690.81;5374515;33;34191;-83
2021/12/16 13:07:41;;;;;;;34.33;21.70;;;;;;;6.51;90.26;101688.97;5388237;33;35055;-83
2021/12/16 13:10:47;;;;;;;36.97;20.33;;;;;;;6.42;90.52;101698.56;5387995;33;34317;-83
2021/12/16 13:14:01;;;;;;;38.25;21.77;;;;;;;6.34;91.10;101693.78;5371516;33;33756;-83
2021/12/16 13:23:48;;;;;;;38.00;22.08;;;;;;;6.17;92.42;101701.41;5369394;33;35265;-83
2021/12/16 13:33:20;;;;;;;39.75;20.50;;;;;;;6.01;93.49;101704.41;5366644;33;35732;-82
2021/12/16 13:36:42;;;;;;;34.00;20.85;;;;;;;6.02;93.73;101706.09;5374753;33;34653;-83
2021/12/16 13:39:47;;;;;;;36.78;20.62;;;;;;;5.95;94.20;101715.56;5376520;33;33994;-86
2021/12/16 13:42:58;;;;;;;31.87;19.73;;;;;;;5.98;94.04;101710.81;5362924;33;34187;-83
2021/12/16 13:46:36;;;;;;;38.88;22.17;;;;;;;5.97;94.23;101719.81;5376330;33;33907;-83
2021/12/16 14:07:24;;;;;;;37.95;20.37;;;;;;;5.98;94.24;101718.00;5373223;33;33855;-83
2021/12/16 14:10:53;;;;;;;37.25;21.20;;;;;;;6.00;94.34;101718.75;5376564;33;34133;-83
2021/12/16 14:17:14;;;;;;;33.90;20.02;;;;;;;5.89;94.92;101720.34;5378328;33;33868;-83
2021/12/16 14:24:29;;;;;;;36.78;20.60;;;;;;;5.79;95.64;101731.81;5372112;33;34058;-83
2021/12/16 14:37:33;;;;;;;36.67;20.20;;;;;;;5.64;96.51;101707.09;5371816;33;33806;-83
2021/12/16 14:43:56;;;;;;;32.20;19.42;;;;;;;5.51;97.54;101707.16;5361802;33;34090;-83
2021/12/16 14:47:29;;;;;;;;;;;;;;;5.48;97.84;101718.06;5363008;33;34283;-83
2021/12/16 14:50:40;;;;;;;32.92;19.35;;;;;;;5.49;98.01;101718.91;5362720;33;34102;-83
2021/12/16 14:53:44;;;;;;;;;;;;;;;5.45;98.35;101720.97;5362800;33;34223;-83
2021/12/16 14:56:47;;;;;;;36.35;19.15;;;;;;;5.50;97.99;101729.50;5362602;33;34837;-83
2021/12/16 14:59:52;;;;;;;31.40;18.90;;;;;;;5.38;98.62;101717.00;5362023;33;33938;-83
2021/12/16 15:03:12;;;;;;;31.33;18.67;;;;;;;5.37;98.81;101723.31;5361582;33;34608;-83
2021/12/16 15:06:38;;;;;;;32.92;19.15;;;;;;;5.43;98.43;101720.22;5361948;33;33670;-87
2021/12/16 15:09:44;;;;;;;33.10;18.45;;;;;;;5.39;98.38;101719.59;5362448;33;33529;-83
2021/12/16 15:12:55;;;;;;;29.10;17.00;;;;;;;5.38;98.59;101725.91;5361107;33;33868;-83
2021/12/16 15:16:18;;;;;;;32.15;18.15;;;;;;;5.34;98.86;101719.06;5361065;33;34006;-83
2021/12/16 15:34:26;;;;;;;28.95;17.92;;;;;;;5.12;100.00;101709.09;5361368;33;34561;-82
2021/12/16 15:36:45;;;;;;;31.75;17.55;;;;;;;5.19;100.00;101701.47;5360529;33;32330;-87
2021/12/16 15:40:06;;;;;;;30.27;16.90;;;;;;;5.10;100.00;101710.16;5358760;33;34024;-82
2021/12/16 15:43:13;;;;;;;27.73;16.12;;;;;;;5.09;100.00;101708.41;5354312;33;33689;-81
2021/12/16 15:46:16;;;;;;;28.90;16.77;;;;;;;5.14;100.00;101719.62;5361982;33;33980;-82
2021/12/16 15:49:22;;;;;;;29.75;17.80;;;;;;;5.11;100.00;101719.84;5362299;33;35341;-81
2021/12/16 15:52:24;;;;;;;27.98;16.98;;;;;;;5.09;100.00;101719.09;5361762;33;33786;-81
2021/12/16 15:55:51;;;;;;;29.20;16.65;;;;;;;5.00;100.00;101717.94;5357545;33;35163;-82
2021/12/16 15:59:01;;;;;;;29.85;17.35;;;;;;;5.04;100.00;101713.25;5369552;33;34081;-82
2021/12/16 16:02:04;;;;;;;31.67;17.08;;;;;;;5.07;100.00;101727.22;5366184;33;33635;-82
2021/12/16 16:05:08;;;;;;;27.73;17.15;;;;;;;5.02;100.00;101725.84;5363137;33;34376;-82
2021/12/16 16:08:13;;;;;;;31.62;18.25;;;;;;;5.05;100.00;101730.97;5363689;33;33801;-82
2021/12/16 16:11:24;;;;;;;26.83;16.37;;;;;;;5.05;100.00;101728.31;5365759;33;33963;-82
2021/12/16 16:14:29;;;;;;;27.60;17.45;;;;;;;5.00;100.00;101726.81;5364521;33;34251;-82
2021/12/16 16:17:40;;;;;;;32.58;17.73;;;;;;;4.97;100.00;101723.50;5372704;33;33913;-82
2021/12/16 16:20:48;;;;;;;29.50;17.33;;;;;;;4.96;100.00;101730.66;5370265;33;33881;-82
2021/12/16 16:23:58;;;;;;;28.55;17.83;;;;;;;4.93;100.00;101722.00;5374513;33;33509;-82
2021/12/16 16:27:06;;;;;;;28.30;17.40;;;;;;;4.94;100.00;101729.03;5365911;33;35367;-87
2021/12/16 16:30:09;;;;;;;26.35;15.98;;;;;;;4.95;100.00;101720.94;5365023;33;34051;-83
2021/12/16 16:33:16;;;;;;;27.92;17.48;;;;;;;4.97;100.00;101716.38;5364115;33;34041;-83
2021/12/16 16:36:22;;;;;;;29.85;18.10;;;;;;;4.95;100.00;101710.28;5361908;33;33698;-83
2021/12/16 16:39:29;;;;;;;27.83;16.23;;;;;;;5.02;100.00;101725.84;5382238;33;33950;-83
2021/12/16 16:42:37;;;;;;;29.37;16.33;;;;;;;4.97;100.00;101729.72;5381706;33;34705;-83
2021/12/16 16:45:41;;;;;;;31.67;17.00;;;;;;;5.06;100.00;101730.88;5379066;33;34285;-83
2021/12/16 16:48:55;;;;;;;28.35;18.10;;;;;;;5.03;100.00;101733.75;5379155;33;33755;-82
2021/12/16 16:52:03;;;;;;;29.58;17.23;;;;;;;5.05;100.00;101729.16;5379877;33;34003;-82
2021/12/16 16:55:16;;;;;;;29.42;17.23;;;;;;;5.06;100.00;101730.00;5379071;33;33441;-82
